• Join FlightAware (Why Join?)
  • Login
  • US Flag 
10:26PM EDT


 

Airport Tracker/Info


-or-


 

Live Flight TrackerFlight Track Log ✈ UCA844 ✈ 03-Dec-2013 ✈ KEWR - KALB

Flight Track Log - Related Links

Times and Time Zones

All times are in EST time to prevent confusion due to time zone crossing. See the UCA844 flight status page for this flight to view local times or setup timezone preferences in your user account.

Time Position Orientation Groundspeed Altitude Reporting Facility
EST Latitude Longitude Course Direction KTS MPH feet Rate Location/Type
01:04PM 40.6667 -74.2000 45° Northeast 143 165 1,700  Level New York TRACON
01:05PM 40.7000 -74.2167 339° North 178 205 2,800 1,020 Climbing New York TRACON
01:06PM 40.7500 -74.2000 14° North 199 229 3,800 960 Climbing New York TRACON
01:07PM 40.8167 -74.2000 360° North 208 239 4,800 1,020 Climbing New York TRACON
01:08PM 40.8833 -74.1833 11° North 211 243 6,000 600 Climbing New York TRACON
01:09PM 40.9333 -74.1667 14° North 235 270 6,000  Level New York TRACON
01:10PM 41.1422 -74.0905 45° Northeast  Level Estimated
01:10PM 41.0167 -74.1667 360° North 254 292 6,000  Level New York TRACON
01:11PM 41.0833 -74.1500 11° North 258 297 6,100 480 Climbing New York TRACON
01:12PM 41.1500 -74.1333 11° North 246 283 7,000 840 Climbing New York TRACON
01:13PM 41.1833 -74.0500 62° Northeast 248 285 7,800 840 Climbing New York TRACON
01:15PM 41.2000 -73.9500 77° East 249 287 8,800 960 Climbing New York TRACON
01:15PM 41.2167 -73.8833 72° East 243 280 9,800 840 Climbing New York TRACON
01:16PM 41.2333 -73.8000 75° East 245 282 10,500 660 Climbing New York TRACON
01:19PM 41.2753 -73.6078 74° East 252 290 12,000 660 Climbing Boston Center
01:20PM 41.3158 -73.5358 53° Northeast 246 283 12,700 480 Climbing Boston Center
01:21PM 41.3786 -73.4942 26° Northeast 251 289 13,000 120 Climbing Boston Center
01:22PM 41.4478 -73.4989 357° North 251 289 13,000  Level Boston Center
01:23PM 41.5186 -73.5014 358° North 254 292 13,000  Level Boston Center
01:24PM 41.5972 -73.5050 358° North 261 300 13,000  Level Boston Center
01:25PM 41.6714 -73.5078 358° North 267 307 13,000  Level Boston Center
01:26PM 41.7453 -73.5117 358° North 267 307 13,000  Level Boston Center
01:27PM 41.8258 -73.5161 358° North 269 310 13,000 -120 Level Boston Center
01:28PM 41.9003 -73.5189 358° North 269 310 12,800 -600 Descending Boston Center
01:29PM 41.9792 -73.5219 358° North 284 327 11,800 -1,020 Descending Boston Center
01:29PM 42.0061 -73.5228 359° North 287 330 11,400 -840 Descending Boston Center
01:30PM 42.0319 -73.5225 360° North 288 331 11,200 -660 Descending Boston Center
01:30PM 42.0633 -73.5256 356° North 282 325 11,000 -240 Descending Boston Center
01:31PM 42.1003 -73.5250 North 275 316 11,000  Level Boston Center
01:31PM 42.1214 -73.5328 345° North 267 307 11,000  Level Boston Center
01:31PM 42.1667 -73.5611 335° Northwest 253 291 11,000  Level Boston Center
01:32PM 42.1856 -73.5736 334° Northwest 256 295 11,000 -240 Level Boston Center
01:33PM 42.2339 -73.6036 335° Northwest 248 285 10,800 -600 Descending Boston Center
01:33PM 42.2625 -73.6206 336° Northwest 253 291 10,400 -1,140 Descending Boston Center
01:34PM 42.3017 -73.6436 336° Northwest 263 303 9,700 -1,440 Descending Boston Center
01:34PM 42.3339 -73.6617 338° Northwest 269 310 9,000 -1,680 Descending Boston Center
01:35PM 42.3675 -73.6828 335° Northwest 266 306 8,100 -1,620 Descending Boston Center
01:35PM 42.3994 -73.6997 339° North 257 296 7,400 -1,620 Descending Boston Center
01:36PM 42.4311 -73.7217 333° Northwest 248 285 6,400 -1,800 Descending Boston Center
01:36PM 42.4606 -73.7367 339° North 241 277 5,600 -1,740 Descending Boston Center
01:37PM 42.4914 -73.7564 335° Northwest 236 272 4,700 -1,740 Descending Boston Center
01:37PM 42.5261 -73.7753 338° Northwest 240 276 3,800 -1,560 Descending Boston Center
01:38PM 42.5617 -73.7944 338° Northwest 233 268 3,000 -1,200 Descending Boston Center
01:38PM 42.5878 -73.7981 354° North 230 265 2,600 -540 Descending Boston Center
01:39PM 42.6228 -73.8006 357° North 221 254 2,500 -420 Descending Boston Center
01:39PM 42.6447 -73.8006 360° North 209 241 2,200 -900 Descending Boston Center
01:40PM 42.6700 -73.8019 358° North 158 182 1,600 -900 Descending Boston Center
01:40PM 42.6925 -73.8028 358° North 168 193 1,300 -720 Descending Boston Center
01:41PM 42.7122 -73.8044 356° North 127 146 800 -840 Descending Boston Center
01:41PM 42.7275 -73.8050 358° North 134 154 500 -1,020 Descending Boston Center
01:43PM 42.7333 -73.8000 North  Level FlightAware Approximate
01:50PM 42.7491 -73.8020 North  Level Estimated
01:51PM 42.7491 -73.8020 North  Level Estimated
01:52PM 42.7491 -73.8020 North  Level Estimated